sensor_id;sensor_type;location;lat;lon;timestamp;pressure;altitude;pressure_sealevel;temperature;humidity
63194;BME280;49289;51.670;5.624;2023-08-01T00:00:22;100050.86;;;23.26;84.18
63194;BME280;49289;51.670;5.624;2023-08-01T00:02:11;100046.15;;;23.19;84.53
63194;BME280;49289;51.670;5.624;2023-08-01T00:03:59;100033.83;;;23.17;84.71
63194;BME280;49289;51.670;5.624;2023-08-01T00:05:47;100038.19;;;22.98;86.03
63194;BME280;49289;51.670;5.624;2023-08-01T00:07:36;100049.27;;;23.45;85.07
63194;BME280;49289;51.670;5.624;2023-08-01T00:09:24;100042.21;;;23.70;82.67
63194;BME280;49289;51.670;5.624;2023-08-01T00:11:12;100047.89;;;23.52;83.49
63194;BME280;49289;51.670;5.624;2023-08-01T00:13:00;100046.71;;;23.49;83.23
63194;BME280;49289;51.670;5.624;2023-08-01T00:14:48;100038.16;;;22.95;84.87
63194;BME280;49289;51.670;5.624;2023-08-01T00:16:35;100002.98;;;22.72;87.13
63194;BME280;49289;51.670;5.624;2023-08-01T00:18:22;100027.41;;;22.73;88.30
63194;BME280;49289;51.670;5.624;2023-08-01T00:20:10;100023.55;;;21.90;92.57
63194;BME280;49289;51.670;5.624;2023-08-01T00:21:58;100026.87;;;22.33;91.57
63194;BME280;49289;51.670;5.624;2023-08-01T00:23:46;100028.08;;;21.85;93.28
63194;BME280;49289;51.670;5.624;2023-08-01T00:25:34;99997.34;;;21.56;93.92
63194;BME280;49289;51.670;5.624;2023-08-01T00:27:21;100022.63;;;21.80;94.28
63194;BME280;49289;51.670;5.624;2023-08-01T00:29:08;100028.32;;;21.71;94.93
63194;BME280;49289;51.670;5.624;2023-08-01T00:31:00;100001.31;;;21.68;95.43
63194;BME280;49289;51.670;5.624;2023-08-01T00:32:43;100022.81;;;22.24;92.55
63194;BME280;49289;51.670;5.624;2023-08-01T00:34:32;100029.09;;;22.05;92.11
63194;BME280;49289;51.670;5.624;2023-08-01T00:36:20;100022.59;;;22.03;94.82
63194;BME280;49289;51.670;5.624;2023-08-01T00:38:08;100028.28;;;22.16;92.39
63194;BME280;49289;51.670;5.624;2023-08-01T00:39:56;100020.20;;;22.63;89.56
63194;BME280;49289;51.670;5.624;2023-08-01T00:41:43;100010.83;;;22.81;88.60
63194;BME280;49289;51.670;5.624;2023-08-01T00:43:30;100005.62;;;22.88;88.61
63194;BME280;49289;51.670;5.624;2023-08-01T00:45:18;99998.84;;;22.78;87.86
63194;BME280;49289;51.670;5.624;2023-08-01T00:47:05;99995.84;;;23.09;86.66
63194;BME280;49289;51.670;5.624;2023-08-01T00:48:52;99969.23;;;22.94;86.13
63194;BME280;49289;51.670;5.624;2023-08-01T00:50:39;100004.20;;;22.98;86.11
63194;BME280;49289;51.670;5.624;2023-08-01T00:52:27;100010.89;;;23.20;85.20
63194;BME280;49289;51.670;5.624;2023-08-01T00:54:16;100005.16;;;23.18;85.71
63194;BME280;49289;51.670;5.624;2023-08-01T00:56:04;99978.73;;;23.11;84.38
63194;BME280;49289;51.670;5.624;2023-08-01T00:57:51;99976.66;;;23.06;84.46
63194;BME280;49289;51.670;5.624;2023-08-01T00:59:38;99998.83;;;23.20;84.24
63194;BME280;49289;51.670;5.624;2023-08-01T01:01:25;99997.60;;;22.91;85.82
63194;BME280;49289;51.670;5.624;2023-08-01T01:03:12;99996.65;;;23.11;84.97
63194;BME280;49289;51.670;5.624;2023-08-01T01:05:00;99961.34;;;23.24;83.04
63194;BME280;49289;51.670;5.624;2023-08-01T01:06:51;99991.71;;;23.62;82.07
63194;BME280;49289;51.670;5.624;2023-08-01T01:08:37;99970.91;;;23.47;81.70
63194;BME280;49289;51.670;5.624;2023-08-01T01:10:24;99998.30;;;23.04;84.58
63194;BME280;49289;51.670;5.624;2023-08-01T01:12:12;100001.38;;;23.01;84.40
63194;BME280;49289;51.670;5.624;2023-08-01T01:14:00;100005.86;;;22.59;86.30
63194;BME280;49289;51.670;5.624;2023-08-01T01:15:48;100000.87;;;22.26;87.54
63194;BME280;49289;51.670;5.624;2023-08-01T01:17:35;99975.55;;;22.66;86.43
63194;BME280;49289;51.670;5.624;2023-08-01T01:19:22;100001.66;;;22.36;87.89
63194;BME280;49289;51.670;5.624;2023-08-01T01:21:09;99999.66;;;22.39;87.90
63194;BME280;49289;51.670;5.624;2023-08-01T01:22:56;99997.91;;;22.65;86.59
63194;BME280;49289;51.670;5.624;2023-08-01T01:24:44;99991.23;;;23.02;85.10
63194;BME280;49289;51.670;5.624;2023-08-01T01:26:33;99989.63;;;23.10;83.15
63194;BME280;49289;51.670;5.624;2023-08-01T01:28:21;99986.08;;;22.82;84.00
63194;BME280;49289;51.670;5.624;2023-08-01T01:30:09;99985.44;;;23.14;83.19
63194;BME280;49289;51.670;5.624;2023-08-01T01:31:57;99967.30;;;22.52;84.51
63194;BME280;49289;51.670;5.624;2023-08-01T01:33:46;99989.03;;;23.21;83.07
63194;BME280;49289;51.670;5.624;2023-08-01T01:35:34;99991.33;;;22.81;84.12
63194;BME280;49289;51.670;5.624;2023-08-01T01:37:21;99989.08;;;22.83;84.13
63194;BME280;49289;51.670;5.624;2023-08-01T01:39:08;99990.25;;;22.84;83.61
63194;BME280;49289;51.670;5.624;2023-08-01T01:40:55;99992.47;;;22.45;84.43
63194;BME280;49289;51.670;5.624;2023-08-01T01:42:43;99990.67;;;22.94;83.76
63194;BME280;49289;51.670;5.624;2023-08-01T01:44:31;99987.25;;;23.12;81.99
63194;BME280;49289;51.670;5.624;2023-08-01T01:46:20;99991.45;;;22.96;81.95
63194;BME280;49289;51.670;5.624;2023-08-01T01:48:07;99990.11;;;22.69;83.68
63194;BME280;49289;51.670;5.624;2023-08-01T01:49:54;99960.65;;;22.93;82.94
63194;BME280;49289;51.670;5.624;2023-08-01T01:51:41;99978.78;;;22.82;82.86
63194;BME280;49289;51.670;5.624;2023-08-01T01:53:28;99975.67;;;23.30;81.77
63194;BME280;49289;51.670;5.624;2023-08-01T01:55:17;99983.51;;;23.25;80.98
63194;BME280;49289;51.670;5.624;2023-08-01T01:57:04;99986.05;;;23.09;81.33
63194;BME280;49289;51.670;5.624;2023-08-01T01:58:51;99986.05;;;23.06;82.61
63194;BME280;49289;51.670;5.624;2023-08-01T02:00:38;99958.01;;;23.03;82.03
63194;BME280;49289;51.670;5.624;2023-08-01T02:02:26;99981.78;;;23.16;81.25
63194;BME280;49289;51.670;5.624;2023-08-01T02:04:15;99984.09;;;22.89;83.26
63194;BME280;49289;51.670;5.624;2023-08-01T02:06:03;99958.08;;;22.89;82.22
63194;BME280;49289;51.670;5.624;2023-08-01T02:07:51;99952.32;;;22.91;82.90
63194;BME280;49289;51.670;5.624;2023-08-01T02:09:39;99980.27;;;22.06;85.01
63194;BME280;49289;51.670;5.624;2023-08-01T02:11:27;99981.40;;;22.08;87.57
63194;BME280;49289;51.670;5.624;2023-08-01T02:13:14;99985.55;;;22.74;84.87
63194;BME280;49289;51.670;5.624;2023-08-01T02:15:01;99953.17;;;22.78;82.23
63194;BME280;49289;51.670;5.624;2023-08-01T02:16:48;99954.30;;;22.51;84.28
63194;BME280;49289;51.670;5.624;2023-08-01T02:18:35;99979.47;;;22.09;86.33
63194;BME280;49289;51.670;5.624;2023-08-01T02:20:23;99981.46;;;21.80;88.25
63194;BME280;49289;51.670;5.624;2023-08-01T02:22:12;99979.36;;;22.06;87.72
63194;BME280;49289;51.670;5.624;2023-08-01T02:24:00;99956.69;;;21.40;90.44
63194;BME280;49289;51.670;5.624;2023-08-01T02:25:51;99980.53;;;21.48;91.36
63194;BME280;49289;51.670;5.624;2023-08-01T02:27:39;99985.17;;;21.96;88.58
63194;BME280;49289;51.670;5.624;2023-08-01T02:29:27;99985.03;;;22.22;87.72
63194;BME280;49289;51.670;5.624;2023-08-01T02:31:15;99982.83;;;21.97;88.19
63194;BME280;49289;51.670;5.624;2023-08-01T02:33:03;99987.93;;;21.50;89.61
63194;BME280;49289;51.670;5.624;2023-08-01T02:34:51;99962.14;;;21.59;89.97
63194;BME280;49289;51.670;5.624;2023-08-01T02:36:39;99985.06;;;22.41;86.00
63194;BME280;49289;51.670;5.624;2023-08-01T02:38:27;99993.14;;;21.76;87.96
63194;BME280;49289;51.670;5.624;2023-08-01T02:40:16;99967.52;;;22.09;86.95
63194;BME280;49289;51.670;5.624;2023-08-01T02:42:04;99990.98;;;21.63;89.26
63194;BME280;49289;51.670;5.624;2023-08-01T02:43:52;99987.75;;;21.46;91.52
63194;BME280;49289;51.670;5.624;2023-08-01T02:45:40;99962.67;;;21.52;88.66
63194;BME280;49289;51.670;5.624;2023-08-01T02:47:28;99997.69;;;21.11;91.96
63194;BME280;49289;51.670;5.624;2023-08-01T02:49:15;99989.67;;;21.51;90.84
63194;BME280;49289;51.670;5.624;2023-08-01T02:51:02;99994.25;;;22.02;87.93
63194;BME280;49289;51.670;5.624;2023-08-01T02:52:49;99998.38;;;22.11;88.14
63194;BME280;49289;51.670;5.624;2023-08-01T02:54:37;99971.92;;;22.10;85.47
63194;BME280;49289;51.670;5.624;2023-08-01T02:56:25;100001.55;;;22.29;86.13
63194;BME280;49289;51.670;5.624;2023-08-01T02:58:13;100000.06;;;22.00;86.90
63194;BME280;49289;51.670;5.624;2023-08-01T03:00:02;100003.71;;;21.65;89.21
63194;BME280;49289;51.670;5.624;2023-08-01T03:01:49;100001.02;;;21.85;87.55
63194;BME280;49289;51.670;5.624;2023-08-01T03:03:37;99995.72;;;22.15;86.83
63194;BME280;49289;51.670;5.624;2023-08-01T03:05:26;99997.92;;;22.21;86.16
63194;BME280;49289;51.670;5.624;2023-08-01T03:07:14;99997.19;;;21.97;85.77
63194;BME280;49289;51.670;5.624;2023-08-01T03:09:02;99993.55;;;22.56;84.76
63194;BME280;49289;51.670;5.624;2023-08-01T03:10:49;99994.28;;;22.25;84.17
63194;BME280;49289;51.670;5.624;2023-08-01T03:12:36;99994.87;;;22.08;86.02
63194;BME280;49289;51.670;5.624;2023-08-01T03:14:23;99991.79;;;22.15;85.54
63194;BME280;49289;51.670;5.624;2023-08-01T03:16:10;99986.26;;;22.69;83.04
63194;BME280;49289;51.670;5.624;2023-08-01T03:17:57;99984.30;;;22.44;83.62
63194;BME280;49289;51.670;5.624;2023-08-01T03:19:45;99981.72;;;22.61;83.17
63194;BME280;49289;51.670;5.624;2023-08-01T03:21:34;99980.73;;;22.80;81.44
63194;BME280;49289;51.670;5.624;2023-08-01T03:23:21;99983.94;;;22.15;83.07
63194;BME280;49289;51.670;5.624;2023-08-01T03:25:10;99990.65;;;22.27;83.79
63194;BME280;49289;51.670;5.624;2023-08-01T03:26:58;99993.27;;;22.38;83.48
63194;BME280;49289;51.670;5.624;2023-08-01T03:28:47;99968.17;;;21.91;84.53
63194;BME280;49289;51.670;5.624;2023-08-01T03:30:35;99991.74;;;22.21;84.26
63194;BME280;49289;51.670;5.624;2023-08-01T03:32:23;99966.09;;;21.68;86.92
63194;BME280;49289;51.670;5.624;2023-08-01T03:34:10;99995.51;;;22.13;85.76
63194;BME280;49289;51.670;5.624;2023-08-01T03:35:57;99993.50;;;22.13;84.32
63194;BME280;49289;51.670;5.624;2023-08-01T03:37:44;99969.94;;;22.02;84.08
63194;BME280;49289;51.670;5.624;2023-08-01T03:39:32;99995.98;;;22.45;82.86
63194;BME280;49289;51.670;5.624;2023-08-01T03:41:20;99997.99;;;22.27;82.54
63194;BME280;49289;51.670;5.624;2023-08-01T03:43:07;99997.00;;;21.51;87.83
63194;BME280;49289;51.670;5.624;2023-08-01T03:44:55;99997.31;;;21.99;86.27
63194;BME280;49289;51.670;5.624;2023-08-01T03:46:43;99997.33;;;22.06;85.07
63194;BME280;49289;51.670;5.624;2023-08-01T03:48:31;99972.77;;;21.86;85.72
63194;BME280;49289;51.670;5.624;2023-08-01T03:50:20;100002.23;;;22.29;84.09
63194;BME280;49289;51.670;5.624;2023-08-01T03:52:08;99974.19;;;22.30;83.91
63194;BME280;49289;51.670;5.624;2023-08-01T03:53:56;99995.09;;;22.74;81.48
63194;BME280;49289;51.670;5.624;2023-08-01T03:55:44;99969.23;;;22.68;80.81
63194;BME280;49289;51.670;5.624;2023-08-01T03:57:31;99973.56;;;22.52;80.91
63194;BME280;49289;51.670;5.624;2023-08-01T03:59:18;100003.22;;;21.92;84.24
63194;BME280;49289;51.670;5.624;2023-08-01T04:01:05;100001.28;;;22.13;84.15
63194;BME280;49289;51.670;5.624;2023-08-01T04:02:52;100013.95;;;21.22;90.51
63194;BME280;49289;51.670;5.624;2023-08-01T04:04:40;100007.80;;;22.01;86.94
63194;BME280;49289;51.670;5.624;2023-08-01T04:06:28;100004.84;;;22.52;84.07
63194;BME280;49289;51.670;5.624;2023-08-01T04:08:15;100004.63;;;22.84;81.97
63194;BME280;49289;51.670;5.624;2023-08-01T04:10:02;100010.62;;;22.23;83.53
63194;BME280;49289;51.670;5.624;2023-08-01T04:11:49;100007.28;;;21.79;86.83
63194;BME280;49289;51.670;5.624;2023-08-01T04:13:36;100007.09;;;21.57;89.28
63194;BME280;49289;51.670;5.624;2023-08-01T04:15:23;99981.33;;;21.59;87.99
63194;BME280;49289;51.670;5.624;2023-08-01T04:17:11;99984.58;;;21.22;88.50
63194;BME280;49289;51.670;5.624;2023-08-01T04:18:59;100011.00;;;21.44;89.57
63194;BME280;49289;51.670;5.624;2023-08-01T04:20:48;100001.07;;;21.57;88.85
63194;BME280;49289;51.670;5.624;2023-08-01T04:22:35;100003.14;;;21.92;87.58
63194;BME280;49289;51.670;5.624;2023-08-01T04:24:22;100007.83;;;21.62;88.20
63194;BME280;49289;51.670;5.624;2023-08-01T04:26:09;99981.81;;;21.60;88.20
63194;BME280;49289;51.670;5.624;2023-08-01T04:27:56;100006.92;;;21.95;87.21
63194;BME280;49289;51.670;5.624;2023-08-01T04:29:43;100012.20;;;22.24;85.54
63194;BME280;49289;51.670;5.624;2023-08-01T04:31:30;100014.28;;;22.53;83.81
63194;BME280;49289;51.670;5.624;2023-08-01T04:33:17;99992.41;;;22.21;83.04
63194;BME280;49289;51.670;5.624;2023-08-01T04:35:05;100007.91;;;22.36;83.58
63194;BME280;49289;51.670;5.624;2023-08-01T04:36:53;100008.77;;;22.44;83.19
63194;BME280;49289;51.670;5.624;2023-08-01T04:38:41;99984.63;;;22.51;82.14
63194;BME280;49289;51.670;5.624;2023-08-01T04:40:30;100002.25;;;22.10;84.92
63194;BME280;49289;51.670;5.624;2023-08-01T04:42:17;100005.34;;;22.39;84.39
63194;BME280;49289;51.670;5.624;2023-08-01T04:44:06;100003.24;;;22.49;83.97
63194;BME280;49289;51.670;5.624;2023-08-01T04:45:54;100004.91;;;22.76;82.01
63194;BME280;49289;51.670;5.624;2023-08-01T04:47:42;100001.73;;;22.15;85.18
63194;BME280;49289;51.670;5.624;2023-08-01T04:49:29;99975.45;;;22.13;83.85
63194;BME280;49289;51.670;5.624;2023-08-01T04:51:16;100001.84;;;22.10;85.46
63194;BME280;49289;51.670;5.624;2023-08-01T04:53:03;99976.70;;;21.98;84.03
63194;BME280;49289;51.670;5.624;2023-08-01T04:54:50;99980.53;;;22.27;83.73
63194;BME280;49289;51.670;5.624;2023-08-01T04:56:38;100015.08;;;22.37;83.90
63194;BME280;49289;51.670;5.624;2023-08-01T04:58:27;100013.41;;;22.50;83.38
63194;BME280;49289;51.670;5.624;2023-08-01T05:00:16;100013.55;;;21.98;85.95
63194;BME280;49289;51.670;5.624;2023-08-01T05:02:04;99990.01;;;22.03;84.11
63194;BME280;49289;51.670;5.624;2023-08-01T05:03:51;99995.27;;;21.93;86.37
63194;BME280;49289;51.670;5.624;2023-08-01T05:05:38;99997.27;;;22.16;84.93
63194;BME280;49289;51.670;5.624;2023-08-01T05:07:25;100021.52;;;22.37;84.32
63194;BME280;49289;51.670;5.624;2023-08-01T05:09:12;99998.45;;;21.78;85.75
63194;BME280;49289;51.670;5.624;2023-08-01T05:11:00;100017.83;;;22.34;84.36
63194;BME280;49289;51.670;5.624;2023-08-01T05:12:48;100015.48;;;22.03;85.38
63194;BME280;49289;51.670;5.624;2023-08-01T05:14:36;100012.50;;;21.88;87.02
63194;BME280;49289;51.670;5.624;2023-08-01T05:16:25;99989.29;;;22.28;83.43
63194;BME280;49289;51.670;5.624;2023-08-01T05:18:13;100013.95;;;22.45;83.60
63194;BME280;49289;51.670;5.624;2023-08-01T05:20:01;100011.67;;;22.07;85.55
63194;BME280;49289;51.670;5.624;2023-08-01T05:21:49;100008.10;;;21.63;88.18
63194;BME280;49289;51.670;5.624;2023-08-01T05:23:36;100005.20;;;22.34;84.57
63194;BME280;49289;51.670;5.624;2023-08-01T05:25:23;99986.64;;;22.23;84.54
63194;BME280;49289;51.670;5.624;2023-08-01T05:27:11;100011.84;;;22.19;84.58
63194;BME280;49289;51.670;5.624;2023-08-01T05:28:59;100014.54;;;21.98;85.78
63194;BME280;49289;51.670;5.624;2023-08-01T05:30:47;100018.73;;;21.93;85.22
63194;BME280;49289;51.670;5.624;2023-08-01T05:32:34;99993.59;;;22.03;86.13
63194;BME280;49289;51.670;5.624;2023-08-01T05:34:21;99996.89;;;22.15;84.15
63194;BME280;49289;51.670;5.624;2023-08-01T05:36:08;99995.53;;;21.93;85.61
63194;BME280;49289;51.670;5.624;2023-08-01T05:37:57;100022.47;;;22.06;84.26
63194;BME280;49289;51.670;5.624;2023-08-01T05:39:45;100022.55;;;22.28;84.08
63194;BME280;49289;51.670;5.624;2023-08-01T05:41:33;100025.94;;;22.38;83.23
63194;BME280;49289;51.670;5.624;2023-08-01T05:43:20;100027.73;;;22.36;83.49
63194;BME280;49289;51.670;5.624;2023-08-01T05:45:07;100004.47;;;21.65;87.11
63194;BME280;49289;51.670;5.624;2023-08-01T05:46:54;100031.06;;;22.54;84.20
63194;BME280;49289;51.670;5.624;2023-08-01T05:48:42;100026.74;;;22.39;83.32
63194;BME280;49289;51.670;5.624;2023-08-01T05:50:31;100026.07;;;22.76;82.81
63194;BME280;49289;51.670;5.624;2023-08-01T05:52:19;100026.23;;;22.73;82.67
63194;BME280;49289;51.670;5.624;2023-08-01T05:54:06;100025.10;;;23.02;81.37
63194;BME280;49289;51.670;5.624;2023-08-01T05:55:54;100022.94;;;22.95;81.44
63194;BME280;49289;51.670;5.624;2023-08-01T05:57:43;100025.22;;;23.13;80.36
63194;BME280;49289;51.670;5.624;2023-08-01T05:59:31;100033.22;;;22.92;80.29
63194;BME280;49289;51.670;5.624;2023-08-01T06:01:19;100033.30;;;22.38;83.23
63194;BME280;49289;51.670;5.624;2023-08-01T06:03:07;100040.08;;;22.07;84.65
63194;BME280;49289;51.670;5.624;2023-08-01T06:04:55;100018.45;;;22.24;83.94
63194;BME280;49289;51.670;5.624;2023-08-01T06:06:42;100041.23;;;22.00;84.53
63194;BME280;49289;51.670;5.624;2023-08-01T06:08:29;100050.98;;;22.36;84.35
63194;BME280;49289;51.670;5.624;2023-08-01T06:10:17;100021.31;;;21.75;85.11
63194;BME280;49289;51.670;5.624;2023-08-01T06:12:05;100046.30;;;22.10;85.34
63194;BME280;49289;51.670;5.624;2023-08-01T06:13:53;100048.33;;;22.59;82.20
63194;BME280;49289;51.670;5.624;2023-08-01T06:15:41;100064.71;;;21.63;86.29
63194;BME280;49289;51.670;5.624;2023-08-01T06:17:29;100056.83;;;21.89;86.30
63194;BME280;49289;51.670;5.624;2023-08-01T06:19:17;100063.61;;;22.05;85.70
63194;BME280;49289;51.670;5.624;2023-08-01T06:21:05;100062.59;;;22.22;83.74
63194;BME280;49289;51.670;5.624;2023-08-01T06:22:53;100064.80;;;21.71;87.72
63194;BME280;49289;51.670;5.624;2023-08-01T06:24:41;100063.86;;;21.62;87.98
63194;BME280;49289;51.670;5.624;2023-08-01T06:26:29;100063.84;;;21.89;86.73
63194;BME280;49289;51.670;5.624;2023-08-01T06:28:17;100039.77;;;21.90;86.60
63194;BME280;49289;51.670;5.624;2023-08-01T06:30:05;100061.33;;;22.28;86.04
63194;BME280;49289;51.670;5.624;2023-08-01T06:31:53;100051.54;;;22.07;85.44
63194;BME280;49289;51.670;5.624;2023-08-01T06:33:41;100058.75;;;22.31;85.52
63194;BME280;49289;51.670;5.624;2023-08-01T06:35:29;100054.70;;;21.86;84.69
63194;BME280;49289;51.670;5.624;2023-08-01T06:37:16;100052.75;;;22.21;86.96
63194;BME280;49289;51.670;5.624;2023-08-01T06:39:05;100055.92;;;22.13;84.62
63194;BME280;49289;51.670;5.624;2023-08-01T06:40:52;100039.73;;;21.40;88.86
63194;BME280;49289;51.670;5.624;2023-08-01T06:42:41;100037.97;;;22.26;86.48
63194;BME280;49289;51.670;5.624;2023-08-01T06:44:29;100056.02;;;23.01;83.57
63194;BME280;49289;51.670;5.624;2023-08-01T06:46:17;100057.83;;;22.91;81.64
63194;BME280;49289;51.670;5.624;2023-08-01T06:48:04;100060.44;;;22.56;83.85
63194;BME280;49289;51.670;5.624;2023-08-01T06:49:51;100038.85;;;22.49;82.95
63194;BME280;49289;51.670;5.624;2023-08-01T06:51:38;100042.92;;;22.33;82.89
63194;BME280;49289;51.670;5.624;2023-08-01T06:53:25;100068.84;;;22.15;84.77
63194;BME280;49289;51.670;5.624;2023-08-01T06:55:14;100065.22;;;22.44;83.78
63194;BME280;49289;51.670;5.624;2023-08-01T06:57:02;100068.28;;;22.53;82.42
63194;BME280;49289;51.670;5.624;2023-08-01T06:58:50;100077.09;;;22.38;84.04
63194;BME280;49289;51.670;5.624;2023-08-01T07:00:38;100082.12;;;22.34;83.91
63194;BME280;49289;51.670;5.624;2023-08-01T07:02:26;100070.98;;;21.50;85.97
63194;BME280;49289;51.670;5.624;2023-08-01T07:04:14;100057.06;;;22.67;82.84
63194;BME280;49289;51.670;5.624;2023-08-01T07:06:01;100081.24;;;22.78;80.03
63194;BME280;49289;51.670;5.624;2023-08-01T07:07:48;100083.72;;;22.41;81.73
63194;BME280;49289;51.670;5.624;2023-08-01T07:09:35;100055.64;;;22.33;80.20
63194;BME280;49289;51.670;5.624;2023-08-01T07:11:22;100082.64;;;22.46;80.35
63194;BME280;49289;51.670;5.624;2023-08-01T07:13:11;100079.70;;;22.65;79.56
63194;BME280;49289;51.670;5.624;2023-08-01T07:14:59;100077.67;;;23.14;78.46
63194;BME280;49289;51.670;5.624;2023-08-01T07:16:46;100083.77;;;22.91;78.42
63194;BME280;49289;51.670;5.624;2023-08-01T07:18:33;100082.64;;;22.63;80.92
63194;BME280;49289;51.670;5.624;2023-08-01T07:20:21;100058.31;;;22.71;80.47
63194;BME280;49289;51.670;5.624;2023-08-01T07:22:08;100076.00;;;22.80;79.49
63194;BME280;49289;51.670;5.624;2023-08-01T07:23:55;100081.80;;;22.68;81.03
63194;BME280;49289;51.670;5.624;2023-08-01T07:25:43;100078.41;;;23.08;78.29
63194;BME280;49289;51.670;5.624;2023-08-01T07:27:31;100082.56;;;23.05;78.73
63194;BME280;49289;51.670;5.624;2023-08-01T07:29:20;100079.00;;;22.73;77.41
63194;BME280;49289;51.670;5.624;2023-08-01T07:31:11;100074.40;;;22.87;77.99
63194;BME280;49289;51.670;5.624;2023-08-01T07:32:59;100075.86;;;22.79;78.42
63194;BME280;49289;51.670;5.624;2023-08-01T07:34:47;100084.98;;;22.97;79.65
63194;BME280;49289;51.670;5.624;2023-08-01T07:36:35;100054.33;;;22.39;78.39
63194;BME280;49289;51.670;5.624;2023-08-01T07:38:23;100079.18;;;22.42;78.79
63194;BME280;49289;51.670;5.624;2023-08-01T07:40:10;100079.30;;;23.08;77.29
63194;BME280;49289;51.670;5.624;2023-08-01T07:41:58;100081.48;;;22.71;79.16
63194;BME280;49289;51.670;5.624;2023-08-01T07:43:47;100084.11;;;22.81;78.78
63194;BME280;49289;51.670;5.624;2023-08-01T07:45:38;100073.92;;;23.13;78.23
63194;BME280;49289;51.670;5.624;2023-08-01T07:47:26;100075.81;;;22.91;77.87
63194;BME280;49289;51.670;5.624;2023-08-01T07:49:14;100078.44;;;22.80;79.22
63194;BME280;49289;51.670;5.624;2023-08-01T07:51:01;100080.59;;;23.40;77.83
63194;BME280;49289;51.670;5.624;2023-08-01T07:52:48;100081.41;;;23.68;77.05
63194;BME280;49289;51.670;5.624;2023-08-01T07:54:36;100087.41;;;22.41;81.17
63194;BME280;49289;51.670;5.624;2023-08-01T07:56:23;100085.36;;;22.52;84.75
63194;BME280;49289;51.670;5.624;2023-08-01T07:58:10;100086.36;;;22.60;84.56
63194;BME280;49289;51.670;5.624;2023-08-01T07:59:57;100080.42;;;22.45;85.60
63194;BME280;49289;51.670;5.624;2023-08-01T08:01:44;100085.38;;;22.29;85.83
63194;BME280;49289;51.670;5.624;2023-08-01T08:03:31;100082.08;;;22.88;85.21
63194;BME280;49289;51.670;5.624;2023-08-01T08:05:19;100082.02;;;23.01;83.65
63194;BME280;49289;51.670;5.624;2023-08-01T08:07:06;100080.16;;;22.81;82.72
63194;BME280;49289;51.670;5.624;2023-08-01T08:08:53;100081.05;;;22.79;82.92
63194;BME280;49289;51.670;5.624;2023-08-01T08:10:40;100084.84;;;22.78;84.42
63194;BME280;49289;51.670;5.624;2023-08-01T08:12:27;100085.70;;;22.73;83.88
63194;BME280;49289;51.670;5.624;2023-08-01T08:14:14;100087.33;;;22.85;83.48
63194;BME280;49289;51.670;5.624;2023-08-01T08:16:02;100066.86;;;22.78;83.22
63194;BME280;49289;51.670;5.624;2023-08-01T08:17:50;100095.00;;;23.01;83.92
63194;BME280;49289;51.670;5.624;2023-08-01T08:19:39;100093.32;;;22.72;84.96
63194;BME280;49289;51.670;5.624;2023-08-01T08:21:27;100098.13;;;22.58;83.27
63194;BME280;49289;51.670;5.624;2023-08-01T08:23:15;100093.22;;;22.07;87.24
63194;BME280;49289;51.670;5.624;2023-08-01T08:25:03;100060.98;;;22.79;84.46
63194;BME280;49289;51.670;5.624;2023-08-01T08:26:51;100084.87;;;22.65;85.05
63194;BME280;49289;51.670;5.624;2023-08-01T08:28:42;100096.91;;;22.29;87.73
63194;BME280;49289;51.670;5.624;2023-08-01T08:30:30;100074.19;;;22.25;86.98
63194;BME280;49289;51.670;5.624;2023-08-01T08:32:19;100106.05;;;22.03;89.70
63194;BME280;49289;51.670;5.624;2023-08-01T08:34:07;100104.83;;;21.86;91.57
63194;BME280;49289;51.670;5.624;2023-08-01T08:35:54;100090.88;;;22.16;90.38
63194;BME280;49289;51.670;5.624;2023-08-01T08:37:41;100092.23;;;22.38;87.75
63194;BME280;49289;51.670;5.624;2023-08-01T08:39:28;100091.11;;;22.13;90.45
63194;BME280;49289;51.670;5.624;2023-08-01T08:41:19;100082.82;;;22.40;87.87
63194;BME280;49289;51.670;5.624;2023-08-01T08:43:06;100066.33;;;21.75;89.13
63194;BME280;49289;51.670;5.624;2023-08-01T08:44:55;100110.70;;;21.68;94.17
63194;BME280;49289;51.670;5.624;2023-08-01T08:46:44;100079.27;;;22.20;90.26
63194;BME280;49289;51.670;5.624;2023-08-01T08:48:30;100113.20;;;22.20;88.96
63194;BME280;49289;51.670;5.624;2023-08-01T08:50:17;100123.27;;;21.66;94.50
63194;BME280;49289;51.670;5.624;2023-08-01T08:52:06;100120.17;;;22.18;92.29
63194;BME280;49289;51.670;5.624;2023-08-01T08:53:54;100095.45;;;21.49;94.79
63194;BME280;49289;51.670;5.624;2023-08-01T08:55:42;100098.75;;;21.30;95.25
63194;BME280;49289;51.670;5.624;2023-08-01T08:57:30;100102.09;;;21.30;96.21
63194;BME280;49289;51.670;5.624;2023-08-01T08:59:18;100137.52;;;20.70;96.87
63194;BME280;49289;51.670;5.624;2023-08-01T09:01:06;100106.25;;;21.23;99.00
63194;BME280;49289;51.670;5.624;2023-08-01T09:02:53;100104.31;;;21.80;97.06
63194;BME280;49289;51.670;5.624;2023-08-01T09:04:40;100136.24;;;21.28;94.17
63194;BME280;49289;51.670;5.624;2023-08-01T09:06:28;100129.55;;;21.19;95.76
63194;BME280;49289;51.670;5.624;2023-08-01T09:08:15;100134.17;;;20.76;97.68
63194;BME280;49289;51.670;5.624;2023-08-01T09:10:01;100135.58;;;21.39;97.52
63194;BME280;49289;51.670;5.624;2023-08-01T09:11:54;100126.58;;;21.55;95.66
63194;BME280;49289;51.670;5.624;2023-08-01T09:13:41;100123.36;;;22.32;93.51
63194;BME280;49289;51.670;5.624;2023-08-01T09:15:28;100123.41;;;22.52;92.20
63194;BME280;49289;51.670;5.624;2023-08-01T09:17:18;100117.16;;;22.83;90.89
63194;BME280;49289;51.670;5.624;2023-08-01T09:19:05;100120.89;;;22.74;91.23
63194;BME280;49289;51.670;5.624;2023-08-01T09:20:53;100115.26;;;22.54;92.03
63194;BME280;49289;51.670;5.624;2023-08-01T09:22:47;100113.70;;;23.12;88.49
63194;BME280;49289;51.670;5.624;2023-08-01T09:24:35;100110.67;;;23.00;88.44